sensor_id;sensor_type;location;lat;lon;timestamp;pressure;altitude;pressure_sealevel;temperature;humidity
34073;BME280;20346;52.702;16.886;2023-02-12T00:01:58;102413.25;;;5.57;84.86
34073;BME280;20346;52.702;16.886;2023-02-12T00:04:46;102419.55;;;5.56;84.85
34073;BME280;20346;52.702;16.886;2023-02-12T00:07:32;102422.58;;;5.55;84.82
34073;BME280;20346;52.702;16.886;2023-02-12T00:10:18;102428.00;;;5.53;84.78
34073;BME280;20346;52.702;16.886;2023-02-12T00:13:04;102432.77;;;5.53;84.90
34073;BME280;20346;52.702;16.886;2023-02-12T00:15:50;102443.71;;;5.53;84.85
34073;BME280;20346;52.702;16.886;2023-02-12T00:18:36;102445.58;;;5.52;84.82
34073;BME280;20346;52.702;16.886;2023-02-12T00:21:23;102448.94;;;5.50;84.79
34073;BME280;20346;52.702;16.886;2023-02-12T00:24:09;102453.54;;;5.50;84.85
34073;BME280;20346;52.702;16.886;2023-02-12T00:26:55;102455.75;;;5.50;84.82
34073;BME280;20346;52.702;16.886;2023-02-12T00:29:41;102455.73;;;5.49;84.89
34073;BME280;20346;52.702;16.886;2023-02-12T00:32:27;102454.00;;;5.48;84.84
34073;BME280;20346;52.702;16.886;2023-02-12T00:35:13;102457.77;;;5.49;84.90
34073;BME280;20346;52.702;16.886;2023-02-12T00:38:00;102459.29;;;5.48;84.87
34073;BME280;20346;52.702;16.886;2023-02-12T00:40:46;102462.19;;;5.48;84.83
34073;BME280;20346;52.702;16.886;2023-02-12T00:43:32;102462.85;;;5.47;84.85
34073;BME280;20346;52.702;16.886;2023-02-12T00:46:18;102462.98;;;5.46;84.83
34073;BME280;20346;52.702;16.886;2023-02-12T00:49:05;102469.80;;;5.45;84.88
34073;BME280;20346;52.702;16.886;2023-02-12T00:51:51;102474.36;;;5.44;84.86
34073;BME280;20346;52.702;16.886;2023-02-12T00:54:37;102483.40;;;5.43;84.87
34073;BME280;20346;52.702;16.886;2023-02-12T00:57:23;102485.95;;;5.42;84.89
34073;BME280;20346;52.702;16.886;2023-02-12T01:00:09;102489.16;;;5.42;84.88
34073;BME280;20346;52.702;16.886;2023-02-12T01:02:56;102501.30;;;5.41;84.88
34073;BME280;20346;52.702;16.886;2023-02-12T01:05:42;102502.33;;;5.41;84.88
34073;BME280;20346;52.702;16.886;2023-02-12T01:08:28;102505.92;;;5.41;84.88
34073;BME280;20346;52.702;16.886;2023-02-12T01:11:14;102509.00;;;5.41;84.91
34073;BME280;20346;52.702;16.886;2023-02-12T01:14:00;102509.30;;;5.40;84.83
34073;BME280;20346;52.702;16.886;2023-02-12T01:16:46;102512.71;;;5.40;84.85
34073;BME280;20346;52.702;16.886;2023-02-12T01:19:32;102522.79;;;5.40;84.84
34073;BME280;20346;52.702;16.886;2023-02-12T01:22:19;102524.95;;;5.38;84.85
34073;BME280;20346;52.702;16.886;2023-02-12T01:25:05;102526.78;;;5.37;84.79
34073;BME280;20346;52.702;16.886;2023-02-12T01:27:52;102533.55;;;5.35;84.81
34073;BME280;20346;52.702;16.886;2023-02-12T01:30:38;102537.61;;;5.33;84.90
34073;BME280;20346;52.702;16.886;2023-02-12T01:33:24;102532.83;;;5.33;84.94
34073;BME280;20346;52.702;16.886;2023-02-12T01:36:10;102540.20;;;5.34;84.91
34073;BME280;20346;52.702;16.886;2023-02-12T01:38:56;102548.95;;;5.35;84.89
34073;BME280;20346;52.702;16.886;2023-02-12T01:41:44;102546.89;;;5.35;84.88
34073;BME280;20346;52.702;16.886;2023-02-12T01:44:31;102544.31;;;5.34;84.91
34073;BME280;20346;52.702;16.886;2023-02-12T01:47:17;102548.10;;;5.35;84.89
34073;BME280;20346;52.702;16.886;2023-02-12T01:50:05;102548.08;;;5.34;84.87
34073;BME280;20346;52.702;16.886;2023-02-12T01:52:52;102554.39;;;5.34;84.85
34073;BME280;20346;52.702;16.886;2023-02-12T01:55:39;102556.57;;;5.32;84.85
34073;BME280;20346;52.702;16.886;2023-02-12T01:58:29;102559.41;;;5.31;84.84
34073;BME280;20346;52.702;16.886;2023-02-12T02:01:17;102562.45;;;5.30;84.78
34073;BME280;20346;52.702;16.886;2023-02-12T02:04:05;102559.09;;;5.27;84.76
34073;BME280;20346;52.702;16.886;2023-02-12T02:06:57;102558.70;;;5.26;84.78
34073;BME280;20346;52.702;16.886;2023-02-12T02:09:44;102563.88;;;5.26;84.87
34073;BME280;20346;52.702;16.886;2023-02-12T02:12:30;102564.05;;;5.27;84.87
34073;BME280;20346;52.702;16.886;2023-02-12T02:15:35;102572.23;;;5.26;84.84
34073;BME280;20346;52.702;16.886;2023-02-12T02:18:36;102571.34;;;5.25;84.83
34073;BME280;20346;52.702;16.886;2023-02-12T02:24:46;102563.10;;;5.24;84.87
34073;BME280;20346;52.702;16.886;2023-02-12T02:30:42;102562.21;;;5.23;84.80
34073;BME280;20346;52.702;16.886;2023-02-12T02:33:51;102565.73;;;5.22;84.85
34073;BME280;20346;52.702;16.886;2023-02-12T02:42:33;102578.67;;;5.19;84.88
34073;BME280;20346;52.702;16.886;2023-02-12T02:45:30;102585.16;;;5.19;84.86
34073;BME280;20346;52.702;16.886;2023-02-12T02:48:23;102585.63;;;5.18;84.82
34073;BME280;20346;52.702;16.886;2023-02-12T02:51:13;102588.49;;;5.17;84.79
34073;BME280;20346;52.702;16.886;2023-02-12T02:54:14;102594.63;;;5.16;84.82
34073;BME280;20346;52.702;16.886;2023-02-12T02:57:21;102592.71;;;5.15;84.76
34073;BME280;20346;52.702;16.886;2023-02-12T03:00:26;102595.23;;;5.14;84.70
34073;BME280;20346;52.702;16.886;2023-02-12T03:03:19;102597.06;;;5.13;84.69
34073;BME280;20346;52.702;16.886;2023-02-12T03:06:09;102597.20;;;5.12;84.76
34073;BME280;20346;52.702;16.886;2023-02-12T03:08:59;102605.33;;;5.10;84.76
34073;BME280;20346;52.702;16.886;2023-02-12T03:11:47;102611.91;;;5.08;84.72
34073;BME280;20346;52.702;16.886;2023-02-12T03:14:36;102608.21;;;5.05;84.71
34073;BME280;20346;52.702;16.886;2023-02-12T03:17:30;102611.37;;;5.03;84.68
34073;BME280;20346;52.702;16.886;2023-02-12T03:20:25;102615.61;;;5.02;84.81
34073;BME280;20346;52.702;16.886;2023-02-12T03:23:15;102618.31;;;5.01;84.74
34073;BME280;20346;52.702;16.886;2023-02-12T03:26:03;102621.33;;;4.99;84.76
34073;BME280;20346;52.702;16.886;2023-02-12T03:28:51;102622.64;;;4.98;84.76
34073;BME280;20346;52.702;16.886;2023-02-12T03:35:06;102634.39;;;4.93;84.70
34073;BME280;20346;52.702;16.886;2023-02-12T03:37:57;102637.23;;;4.91;84.68
34073;BME280;20346;52.702;16.886;2023-02-12T03:40:52;102645.93;;;4.91;84.75
34073;BME280;20346;52.702;16.886;2023-02-12T03:46:32;102650.51;;;4.90;84.76
34073;BME280;20346;52.702;16.886;2023-02-12T03:49:25;102649.20;;;4.87;84.64
34073;BME280;20346;52.702;16.886;2023-02-12T03:52:12;102655.05;;;4.84;84.61
34073;BME280;20346;52.702;16.886;2023-02-12T03:54:58;102653.97;;;4.83;84.71
34073;BME280;20346;52.702;16.886;2023-02-12T03:57:47;102656.88;;;4.83;84.65
34073;BME280;20346;52.702;16.886;2023-02-12T04:00:36;102664.88;;;4.82;84.58
34073;BME280;20346;52.702;16.886;2023-02-12T04:03:23;102673.58;;;4.78;84.59
34073;BME280;20346;52.702;16.886;2023-02-12T04:06:22;102674.05;;;4.77;84.63
34073;BME280;20346;52.702;16.886;2023-02-12T04:09:10;102679.65;;;4.76;84.58
34073;BME280;20346;52.702;16.886;2023-02-12T04:14:47;102683.55;;;4.75;84.63
34073;BME280;20346;52.702;16.886;2023-02-12T04:26:31;102679.30;;;4.71;84.63
34073;BME280;20346;52.702;16.886;2023-02-12T04:32:14;102684.40;;;4.66;84.57
34073;BME280;20346;52.702;16.886;2023-02-12T04:38:09;102690.02;;;4.61;84.57
34073;BME280;20346;52.702;16.886;2023-02-12T04:40:57;102693.89;;;4.55;84.45
34073;BME280;20346;52.702;16.886;2023-02-12T04:43:44;102697.79;;;4.51;84.47
34073;BME280;20346;52.702;16.886;2023-02-12T04:46:30;102700.04;;;4.48;84.53
34073;BME280;20346;52.702;16.886;2023-02-12T04:49:17;102707.23;;;4.40;84.41
34073;BME280;20346;52.702;16.886;2023-02-12T04:52:04;102709.54;;;4.34;84.50
34073;BME280;20346;52.702;16.886;2023-02-12T04:54:50;102715.55;;;4.31;84.59
34073;BME280;20346;52.702;16.886;2023-02-12T04:57:37;102715.52;;;4.27;84.57
34073;BME280;20346;52.702;16.886;2023-02-12T05:00:23;102727.21;;;4.24;84.58
34073;BME280;20346;52.702;16.886;2023-02-12T05:03:09;102728.55;;;4.20;84.59
34073;BME280;20346;52.702;16.886;2023-02-12T05:05:55;102730.73;;;4.15;84.57
34073;BME280;20346;52.702;16.886;2023-02-12T05:08:41;102737.91;;;4.11;84.63
34073;BME280;20346;52.702;16.886;2023-02-12T05:11:28;102743.86;;;4.11;84.74
34073;BME280;20346;52.702;16.886;2023-02-12T05:14:14;102738.34;;;4.09;84.69
34073;BME280;20346;52.702;16.886;2023-02-12T05:17:01;102740.02;;;4.09;84.70
34073;BME280;20346;52.702;16.886;2023-02-12T05:19:47;102739.58;;;4.10;84.79
34073;BME280;20346;52.702;16.886;2023-02-12T05:22:33;102739.20;;;4.09;84.67
34073;BME280;20346;52.702;16.886;2023-02-12T05:25:19;102741.48;;;4.07;84.72
34073;BME280;20346;52.702;16.886;2023-02-12T05:28:05;102743.98;;;4.02;84.63
34073;BME280;20346;52.702;16.886;2023-02-12T05:30:51;102739.65;;;4.00;84.72
34073;BME280;20346;52.702;16.886;2023-02-12T05:33:37;102736.65;;;3.98;84.74
34073;BME280;20346;52.702;16.886;2023-02-12T05:36:25;102748.23;;;3.97;84.80
34073;BME280;20346;52.702;16.886;2023-02-12T05:39:11;102758.71;;;3.99;84.82
34073;BME280;20346;52.702;16.886;2023-02-12T05:41:57;102766.19;;;3.98;84.77
34073;BME280;20346;52.702;16.886;2023-02-12T05:44:43;102772.63;;;3.94;84.71
34073;BME280;20346;52.702;16.886;2023-02-12T05:47:29;102782.06;;;3.95;84.82
34073;BME280;20346;52.702;16.886;2023-02-12T05:50:15;102780.56;;;3.96;84.78
34073;BME280;20346;52.702;16.886;2023-02-12T05:53:01;102780.76;;;3.96;84.77
34073;BME280;20346;52.702;16.886;2023-02-12T05:55:47;102787.27;;;3.97;84.75
34073;BME280;20346;52.702;16.886;2023-02-12T05:58:33;102791.76;;;3.94;84.58
34073;BME280;20346;52.702;16.886;2023-02-12T06:01:23;102794.96;;;3.93;84.79
34073;BME280;20346;52.702;16.886;2023-02-12T06:04:20;102803.39;;;3.95;84.87
34073;BME280;20346;52.702;16.886;2023-02-12T06:07:08;102806.83;;;3.95;84.76
34073;BME280;20346;52.702;16.886;2023-02-12T06:09:54;102807.04;;;3.96;84.76
34073;BME280;20346;52.702;16.886;2023-02-12T06:12:40;102810.17;;;3.98;84.82
34073;BME280;20346;52.702;16.886;2023-02-12T06:15:27;102818.64;;;4.00;84.81
34073;BME280;20346;52.702;16.886;2023-02-12T06:18:13;102822.42;;;4.01;84.72
34073;BME280;20346;52.702;16.886;2023-02-12T06:21:10;102825.89;;;3.98;84.75
34073;BME280;20346;52.702;16.886;2023-02-12T06:23:56;102826.80;;;3.99;84.82
34073;BME280;20346;52.702;16.886;2023-02-12T06:26:43;102828.21;;;4.00;84.80
34073;BME280;20346;52.702;16.886;2023-02-12T06:29:29;102836.10;;;4.01;84.78
34073;BME280;20346;52.702;16.886;2023-02-12T06:32:16;102842.73;;;4.01;84.73
34073;BME280;20346;52.702;16.886;2023-02-12T06:35:02;102843.60;;;4.01;84.78
34073;BME280;20346;52.702;16.886;2023-02-12T06:37:49;102842.23;;;4.01;84.80
34073;BME280;20346;52.702;16.886;2023-02-12T06:40:36;102848.36;;;4.05;84.89
34073;BME280;20346;52.702;16.886;2023-02-12T06:43:23;102851.52;;;4.06;84.86
34073;BME280;20346;52.702;16.886;2023-02-12T06:46:10;102851.73;;;4.07;84.81
34073;BME280;20346;52.702;16.886;2023-02-12T06:48:57;102855.95;;;4.06;84.81
34073;BME280;20346;52.702;16.886;2023-02-12T06:51:43;102854.75;;;4.06;84.82
34073;BME280;20346;52.702;16.886;2023-02-12T06:54:29;102855.89;;;4.09;84.84
34073;BME280;20346;52.702;16.886;2023-02-12T06:57:15;102861.13;;;4.11;84.88
34073;BME280;20346;52.702;16.886;2023-02-12T07:00:02;102865.23;;;4.11;84.82
34073;BME280;20346;52.702;16.886;2023-02-12T07:02:55;102864.49;;;4.14;84.92
34073;BME280;20346;52.702;16.886;2023-02-12T07:05:41;102869.86;;;4.15;84.83
34073;BME280;20346;52.702;16.886;2023-02-12T07:08:28;102875.36;;;4.16;84.78
34073;BME280;20346;52.702;16.886;2023-02-12T07:11:18;102875.29;;;4.19;84.89
34073;BME280;20346;52.702;16.886;2023-02-12T07:14:07;102882.22;;;4.21;84.88
34073;BME280;20346;52.702;16.886;2023-02-12T07:16:58;102885.34;;;4.22;84.86
34073;BME280;20346;52.702;16.886;2023-02-12T07:19:48;102888.89;;;4.21;84.81
34073;BME280;20346;52.702;16.886;2023-02-12T07:22:34;102888.72;;;4.21;84.79
34073;BME280;20346;52.702;16.886;2023-02-12T07:25:21;102886.31;;;4.17;84.63
34073;BME280;20346;52.702;16.886;2023-02-12T07:28:07;102885.65;;;4.13;84.75
34073;BME280;20346;52.702;16.886;2023-02-12T07:30:53;102894.58;;;4.14;84.89
34073;BME280;20346;52.702;16.886;2023-02-12T07:33:40;102900.84;;;4.17;84.94
34073;BME280;20346;52.702;16.886;2023-02-12T07:36:27;102902.79;;;4.19;84.91
34073;BME280;20346;52.702;16.886;2023-02-12T07:39:14;102904.06;;;4.21;84.84
34073;BME280;20346;52.702;16.886;2023-02-12T07:42:01;102909.23;;;4.22;84.97
34073;BME280;20346;52.702;16.886;2023-02-12T07:44:48;102913.97;;;4.25;84.96
34073;BME280;20346;52.702;16.886;2023-02-12T07:47:35;102912.54;;;4.23;84.79
34073;BME280;20346;52.702;16.886;2023-02-12T07:50:23;102915.08;;;4.15;84.68
34073;BME280;20346;52.702;16.886;2023-02-12T07:53:09;102914.27;;;4.12;84.83
34073;BME280;20346;52.702;16.886;2023-02-12T07:56:03;102911.43;;;4.14;84.94
34073;BME280;20346;52.702;16.886;2023-02-12T07:58:50;102911.05;;;4.16;84.97
34073;BME280;20346;52.702;16.886;2023-02-12T08:01:37;102915.80;;;4.20;84.96
34073;BME280;20346;52.702;16.886;2023-02-12T08:04:25;102919.98;;;4.21;84.93
34073;BME280;20346;52.702;16.886;2023-02-12T08:07:11;102923.31;;;4.23;84.92
34073;BME280;20346;52.702;16.886;2023-02-12T08:09:58;102919.67;;;4.26;84.95
34073;BME280;20346;52.702;16.886;2023-02-12T08:12:44;102921.90;;;4.30;85.04
34073;BME280;20346;52.702;16.886;2023-02-12T08:15:30;102914.14;;;4.36;85.05
34073;BME280;20346;52.702;16.886;2023-02-12T08:18:16;102911.72;;;4.35;84.89
34073;BME280;20346;52.702;16.886;2023-02-12T08:21:25;102910.46;;;4.37;84.95
34073;BME280;20346;52.702;16.886;2023-02-12T08:24:09;102912.41;;;4.42;85.04
34073;BME280;20346;52.702;16.886;2023-02-12T08:26:56;102914.34;;;4.47;85.01
34073;BME280;20346;52.702;16.886;2023-02-12T08:29:44;102918.47;;;4.51;85.00
34073;BME280;20346;52.702;16.886;2023-02-12T08:32:30;102917.40;;;4.54;84.94
34073;BME280;20346;52.702;16.886;2023-02-12T08:35:19;102917.16;;;4.56;84.94
34073;BME280;20346;52.702;16.886;2023-02-12T08:38:05;102916.09;;;4.59;84.93
34073;BME280;20346;52.702;16.886;2023-02-12T08:40:52;102919.15;;;4.62;85.00
34073;BME280;20346;52.702;16.886;2023-02-12T08:43:38;102916.70;;;4.65;84.99
34073;BME280;20346;52.702;16.886;2023-02-12T08:46:26;102915.31;;;4.69;84.99
34073;BME280;20346;52.702;16.886;2023-02-12T08:49:14;102917.34;;;4.72;84.97
34073;BME280;20346;52.702;16.886;2023-02-12T08:52:00;102924.69;;;4.76;85.00
34073;BME280;20346;52.702;16.886;2023-02-12T08:54:47;102918.89;;;4.80;85.03
34073;BME280;20346;52.702;16.886;2023-02-12T08:57:34;102923.96;;;4.83;84.99
34073;BME280;20346;52.702;16.886;2023-02-12T09:00:20;102929.69;;;4.85;85.01
34073;BME280;20346;52.702;16.886;2023-02-12T09:03:07;102930.28;;;4.86;85.00
34073;BME280;20346;52.702;16.886;2023-02-12T09:05:53;102930.55;;;4.89;84.99
34073;BME280;20346;52.702;16.886;2023-02-12T09:08:43;102929.54;;;4.89;84.97
34073;BME280;20346;52.702;16.886;2023-02-12T09:11:30;102932.21;;;4.91;85.00
34073;BME280;20346;52.702;16.886;2023-02-12T09:14:17;102936.34;;;4.92;84.99
34073;BME280;20346;52.702;16.886;2023-02-12T09:17:03;102940.20;;;4.94;85.00
34073;BME280;20346;52.702;16.886;2023-02-12T09:19:49;102945.61;;;4.97;85.08
34073;BME280;20346;52.702;16.886;2023-02-12T09:22:35;102950.66;;;4.99;85.10
34073;BME280;20346;52.702;16.886;2023-02-12T09:25:23;102949.41;;;5.02;85.13
34073;BME280;20346;52.702;16.886;2023-02-12T09:28:09;102952.02;;;5.03;85.09
34073;BME280;20346;52.702;16.886;2023-02-12T09:30:56;102954.55;;;5.02;85.00
34073;BME280;20346;52.702;16.886;2023-02-12T09:33:42;102953.48;;;5.05;85.13
34073;BME280;20346;52.702;16.886;2023-02-12T09:36:28;102959.95;;;5.08;85.16
34073;BME280;20346;52.702;16.886;2023-02-12T09:39:15;102959.45;;;5.12;85.21
34073;BME280;20346;52.702;16.886;2023-02-12T09:45:06;102963.53;;;5.19;85.19
34073;BME280;20346;52.702;16.886;2023-02-12T09:50:47;102958.36;;;5.27;85.27
34073;BME280;20346;52.702;16.886;2023-02-12T09:53:37;102959.25;;;5.27;85.23
34073;BME280;20346;52.702;16.886;2023-02-12T09:56:24;102958.27;;;5.28;85.20
34073;BME280;20346;52.702;16.886;2023-02-12T09:59:12;102956.14;;;5.31;85.25
34073;BME280;20346;52.702;16.886;2023-02-12T10:02:01;102960.91;;;5.35;85.34
34073;BME280;20346;52.702;16.886;2023-02-12T10:04:48;102961.34;;;5.37;85.27
34073;BME280;20346;52.702;16.886;2023-02-12T10:10:43;102950.64;;;5.38;85.33
34073;BME280;20346;52.702;16.886;2023-02-12T10:13:38;102954.52;;;5.41;85.31
34073;BME280;20346;52.702;16.886;2023-02-12T10:26:13;102947.27;;;5.55;85.36
34073;BME280;20346;52.702;16.886;2023-02-12T10:29:08;102951.09;;;5.57;85.36
34073;BME280;20346;52.702;16.886;2023-02-12T10:31:57;102951.01;;;5.59;85.24
34073;BME280;20346;52.702;16.886;2023-02-12T10:34:45;102951.61;;;5.61;85.40
34073;BME280;20346;52.702;16.886;2023-02-12T10:40:36;102954.73;;;5.71;85.40
34073;BME280;20346;52.702;16.886;2023-02-12T10:43:24;102954.66;;;5.73;85.33
34073;BME280;20346;52.702;16.886;2023-02-12T10:46:16;102955.98;;;5.76;85.31
34073;BME280;20346;52.702;16.886;2023-02-12T10:49:03;102962.91;;;5.78;85.30
34073;BME280;20346;52.702;16.886;2023-02-12T10:54:55;102960.03;;;5.75;85.19
34073;BME280;20346;52.702;16.886;2023-02-12T10:57:42;102956.23;;;5.74;85.22
34073;BME280;20346;52.702;16.886;2023-02-12T11:00:32;102952.85;;;5.75;85.30
34073;BME280;20346;52.702;16.886;2023-02-12T11:03:20;102951.31;;;5.75;85.15
34073;BME280;20346;52.702;16.886;2023-02-12T11:06:16;102953.95;;;5.77;85.29
34073;BME280;20346;52.702;16.886;2023-02-12T11:09:02;102953.55;;;5.79;85.19
34073;BME280;20346;52.702;16.886;2023-02-12T11:11:50;102951.25;;;5.82;85.25
34073;BME280;20346;52.702;16.886;2023-02-12T11:14:36;102944.33;;;5.84;85.24
34073;BME280;20346;52.702;16.886;2023-02-12T11:17:24;102939.04;;;5.88;85.19
34073;BME280;20346;52.702;16.886;2023-02-12T11:23:04;102942.24;;;6.04;85.34
34073;BME280;20346;52.702;16.886;2023-02-12T11:25:55;102939.77;;;6.14;85.41
34073;BME280;20346;52.702;16.886;2023-02-12T11:29:04;102937.66;;;6.22;85.26
34073;BME280;20346;52.702;16.886;2023-02-12T11:32:02;102934.32;;;6.29;85.30
34073;BME280;20346;52.702;16.886;2023-02-12T11:35:23;102932.26;;;6.33;85.22
34073;BME280;20346;52.702;16.886;2023-02-12T11:38:14;102935.97;;;6.36;85.22
34073;BME280;20346;52.702;16.886;2023-02-12T11:41:29;102934.78;;;6.41;85.24
34073;BME280;20346;52.702;16.886;2023-02-12T11:44:12;102931.63;;;6.44;85.16
34073;BME280;20346;52.702;16.886;2023-02-12T11:47:07;102926.23;;;6.46;85.18
34073;BME280;20346;52.702;16.886;2023-02-12T11:53:08;102915.92;;;6.54;85.30
34073;BME280;20346;52.702;16.886;2023-02-12T11:56:07;102916.07;;;6.58;85.20
34073;BME280;20346;52.702;16.886;2023-02-12T12:02:20;102917.38;;;6.61;85.14
34073;BME280;20346;52.702;16.886;2023-02-12T12:05:10;102917.10;;;6.62;85.21
34073;BME280;20346;52.702;16.886;2023-02-12T12:07:58;102908.22;;;6.63;85.24
34073;BME280;20346;52.702;16.886;2023-02-12T12:10:47;102906.92;;;6.66;85.25
34073;BME280;20346;52.702;16.886;2023-02-12T12:13:38;102901.74;;;6.64;85.16
34073;BME280;20346;52.702;16.886;2023-02-12T12:16:28;102901.15;;;6.62;85.09
34073;BME280;20346;52.702;16.886;2023-02-12T12:22:45;102902.17;;;6.62;85.17
34073;BME280;20346;52.702;16.886;2023-02-12T12:25:42;102902.85;;;6.61;85.13
34073;BME280;20346;52.702;16.886;2023-02-12T12:31:40;102894.91;;;6.65;85.14
34073;BME280;20346;52.702;16.886;2023-02-12T12:34:28;102892.55;;;6.67;85.15
34073;BME280;20346;52.702;16.886;2023-02-12T12:43:35;102883.18;;;6.68;85.23
34073;BME280;20346;52.702;16.886;2023-02-12T12:49:14;102876.77;;;6.70;85.24
34073;BME280;20346;52.702;16.886;2023-02-12T12:52:07;102878.93;;;6.69;85.11
34073;BME280;20346;52.702;16.886;2023-02-12T12:58:05;102877.48;;;6.67;85.15
34073;BME280;20346;52.702;16.886;2023-02-12T13:03:56;102870.73;;;6.65;85.08
34073;BME280;20346;52.702;16.886;2023-02-12T13:09:44;102859.06;;;6.59;85.08
34073;BME280;20346;52.702;16.886;2023-02-12T13:15:43;102855.20;;;6.57;85.08
34073;BME280;20346;52.702;16.886;2023-02-12T13:24:42;102858.52;;;6.49;85.07
34073;BME280;20346;52.702;16.886;2023-02-12T13:27:33;102856.64;;;6.45;85.03
34073;BME280;20346;52.702;16.886;2023-02-12T13:30:22;102857.27;;;6.44;85.12
34073;BME280;20346;52.702;16.886;2023-02-12T13:33:12;102858.63;;;6.43;85.18
34073;BME280;20346;52.702;16.886;2023-02-12T13:36:00;102865.30;;;6.43;85.18
34073;BME280;20346;52.702;16.886;2023-02-12T13:38:50;102868.55;;;6.43;85.15
34073;BME280;20346;52.702;16.886;2023-02-12T13:41:37;102873.33;;;6.42;85.15
34073;BME280;20346;52.702;16.886;2023-02-12T13:56:35;102868.77;;;6.35;84.96
34073;BME280;20346;52.702;16.886;2023-02-12T14:02:56;102869.94;;;6.34;84.93
34073;BME280;20346;52.702;16.886;2023-02-12T14:05:42;102866.80;;;6.33;84.88
34073;BME280;20346;52.702;16.886;2023-02-12T14:08:33;102865.64;;;6.34;84.93
34073;BME280;20346;52.702;16.886;2023-02-12T14:11:21;102860.31;;;6.33;84.95
34073;BME280;20346;52.702;16.886;2023-02-12T14:14:09;102867.85;;;6.33;84.89
34073;BME280;20346;52.702;16.886;2023-02-12T14:16:55;102868.38;;;6.34;84.94
34073;BME280;20346;52.702;16.886;2023-02-12T14:31:29;102862.61;;;6.31;84.79
34073;BME280;20346;52.702;16.886;2023-02-12T14:37:33;102872.45;;;6.28;84.83
34073;BME280;20346;52.702;16.886;2023-02-12T14:43:40;102872.77;;;6.27;84.89
34073;BME280;20346;52.702;16.886;2023-02-12T14:46:46;102871.02;;;6.27;84.88
34073;BME280;20346;52.702;16.886;2023-02-12T14:52:21;102873.24;;;6.26;84.83
34073;BME280;20346;52.702;16.886;2023-02-12T14:55:23;102874.03;;;6.25;84.83
34073;BME280;20346;52.702;16.886;2023-02-12T14:58:21;102885.48;;;6.23;84.87
34073;BME280;20346;52.702;16.886;2023-02-12T15:01:09;102889.02;;;6.22;84.88
34073;BME280;20346;52.702;16.886;2023-02-12T15:03:55;102884.92;;;6.22;85.00
34073;BME280;20346;52.702;16.886;2023-02-12T15:06:47;102885.95;;;6.22;84.90
34073;BME280;20346;52.702;16.886;2023-02-12T15:09:36;102879.94;;;6.21;84.86
34073;BME280;20346;52.702;16.886;2023-02-12T15:12:31;102874.23;;;6.20;84.90
34073;BME280;20346;52.702;16.886;2023-02-12T15:15:24;102873.80;;;6.18;84.78
34073;BME280;20346;52.702;16.886;2023-02-12T15:21:13;102868.58;;;6.15;84.77
34073;BME280;20346;52.702;16.886;2023-02-12T15:24:03;102866.46;;;6.14;84.95
34073;BME280;20346;52.702;16.886;2023-02-12T15:26:50;102868.38;;;6.15;84.91
34073;BME280;20346;52.702;16.886;2023-02-12T15:29:41;102860.33;;;6.15;84.84
34073;BME280;20346;52.702;16.886;2023-02-12T15:32:28;102860.15;;;6.15;84.84
34073;BME280;20346;52.702;16.886;2023-02-12T15:38:06;102858.60;;;6.14;84.85
34073;BME280;20346;52.702;16.886;2023-02-12T15:40:54;102859.60;;;6.14;84.84
34073;BME280;20346;52.702;16.886;2023-02-12T15:43:40;102857.18;;;6.13;84.82
34073;BME280;20346;52.702;16.886;2023-02-12T15:46:26;102844.67;;;6.13;84.84
34073;BME280;20346;52.702;16.886;2023-02-12T15:49:19;102844.83;;;6.12;84.84
34073;BME280;20346;52.702;16.886;2023-02-12T15:52:14;102845.77;;;6.10;84.81
34073;BME280;20346;52.702;16.886;2023-02-12T15:55:02;102846.52;;;6.08;84.77
34073;BME280;20346;52.702;16.886;2023-02-12T15:57:54;102850.77;;;6.07;84.81
34073;BME280;20346;52.702;16.886;2023-02-12T16:00:41;102850.85;;;6.04;84.81
34073;BME280;20346;52.702;16.886;2023-02-12T16:03:29;102852.19;;;6.04;84.79
34073;BME280;20346;52.702;16.886;2023-02-12T16:06:16;102855.63;;;6.04;84.82
34073;BME280;20346;52.702;16.886;2023-02-12T16:09:06;102858.35;;;6.04;84.81
34073;BME280;20346;52.702;16.886;2023-02-12T16:11:53;102866.05;;;6.03;84.86
34073;BME280;20346;52.702;16.886;2023-02-12T16:14:42;102861.84;;;6.01;84.76
34073;BME280;20346;52.702;16.886;2023-02-12T16:17:32;102865.21;;;6.00;84.82
34073;BME280;20346;52.702;16.886;2023-02-12T16:20:23;102863.96;;;5.98;84.76
34073;BME280;20346;52.702;16.886;2023-02-12T16:23:10;102863.52;;;5.96;84.81
34073;BME280;20346;52.702;16.886;2023-02-12T16:25:58;102861.61;;;5.95;84.82
34073;BME280;20346;52.702;16.886;2023-02-12T16:28:49;102869.75;;;5.93;84.80
34073;BME280;20346;52.702;16.886;2023-02-12T16:31:35;102872.23;;;5.91;84.81
34073;BME280;20346;52.702;16.886;2023-02-12T16:34:28;102876.14;;;5.90;84.78
34073;BME280;20346;52.702;16.886;2023-02-12T16:37:49;102879.37;;;5.89;84.80
34073;BME280;20346;52.702;16.886;2023-02-12T16:40:30;102886.16;;;5.89;84.84
34073;BME280;20346;52.702;16.886;2023-02-12T16:43:21;102886.13;;;5.88;84.80
34073;BME280;20346;52.702;16.886;2023-02-12T16:46:08;102883.31;;;5.86;84.80
34073;BME280;20346;52.702;16.886;2023-02-12T16:48:56;102883.91;;;5.84;84.80
34073;BME280;20346;52.702;16.886;2023-02-12T16:51:43;102882.65;;;5.82;84.88
34073;BME280;20346;52.702;16.886;2023-02-12T16:54:30;102884.36;;;5.82;84.91
34073;BME280;20346;52.702;16.886;2023-02-12T16:57:17;102883.48;;;5.82;84.95
34073;BME280;20346;52.702;16.886;2023-02-12T17:00:04;102882.36;;;5.80;84.90
34073;BME280;20346;52.702;16.886;2023-02-12T17:02:53;102881.84;;;5.79;84.93
34073;BME280;20346;52.702;16.886;2023-02-12T17:05:39;102879.39;;;5.78;84.94
34073;BME280;20346;52.702;16.886;2023-02-12T17:08:28;102881.07;;;5.77;84.91
34073;BME280;20346;52.702;16.886;2023-02-12T17:11:13;102888.08;;;5.77;84.91